sensor_id;sensor_type;location;lat;lon;timestamp;temperature;humidity
20459;DHT22;10388;52.314;7.938;2024-01-07T00:01:47;0.20;99.90
20459;DHT22;10388;52.314;7.938;2024-01-07T00:04:18;0.10;99.90
20459;DHT22;10388;52.314;7.938;2024-01-07T00:06:49;0.10;99.90
20459;DHT22;10388;52.314;7.938;2024-01-07T00:09:19;0.10;99.90
20459;DHT22;10388;52.314;7.938;2024-01-07T00:11:50;0.10;99.90
20459;DHT22;10388;52.314;7.938;2024-01-07T00:14:21;0.10;99.90
20459;DHT22;10388;52.314;7.938;2024-01-07T00:16:51;0.00;99.90
20459;DHT22;10388;52.314;7.938;2024-01-07T00:19:22;0.10;99.90
20459;DHT22;10388;52.314;7.938;2024-01-07T00:21:52;0.10;99.90
20459;DHT22;10388;52.314;7.938;2024-01-07T00:24:23;0.10;99.90
20459;DHT22;10388;52.314;7.938;2024-01-07T00:26:56;0.10;99.90
20459;DHT22;10388;52.314;7.938;2024-01-07T00:29:26;0.00;99.90
20459;DHT22;10388;52.314;7.938;2024-01-07T00:31:57;0.00;99.90
20459;DHT22;10388;52.314;7.938;2024-01-07T00:34:27;0.00;99.90
20459;DHT22;10388;52.314;7.938;2024-01-07T00:36:58;0.00;99.90
20459;DHT22;10388;52.314;7.938;2024-01-07T00:39:28;0.00;99.90
20459;DHT22;10388;52.314;7.938;2024-01-07T00:41:59;0.00;99.90
20459;DHT22;10388;52.314;7.938;2024-01-07T00:44:29;0.00;99.90
20459;DHT22;10388;52.314;7.938;2024-01-07T00:47:00;-0.10;99.90
20459;DHT22;10388;52.314;7.938;2024-01-07T00:49:30;0.00;99.90
20459;DHT22;10388;52.314;7.938;2024-01-07T00:52:01;0.00;99.90
20459;DHT22;10388;52.314;7.938;2024-01-07T00:54:32;-0.10;99.90
20459;DHT22;10388;52.314;7.938;2024-01-07T00:57:03;0.00;99.90
20459;DHT22;10388;52.314;7.938;2024-01-07T00:59:33;0.00;99.90
20459;DHT22;10388;52.314;7.938;2024-01-07T01:02:04;-0.10;99.90
20459;DHT22;10388;52.314;7.938;2024-01-07T01:04:38;-0.10;99.90
20459;DHT22;10388;52.314;7.938;2024-01-07T01:07:09;-0.10;99.90
20459;DHT22;10388;52.314;7.938;2024-01-07T01:09:40;0.00;99.90
20459;DHT22;10388;52.314;7.938;2024-01-07T01:12:10;-0.10;99.90
20459;DHT22;10388;52.314;7.938;2024-01-07T01:14:41;-0.10;99.90
20459;DHT22;10388;52.314;7.938;2024-01-07T01:17:12;-0.20;99.90
20459;DHT22;10388;52.314;7.938;2024-01-07T01:19:42;-0.10;99.90
20459;DHT22;10388;52.314;7.938;2024-01-07T01:22:13;-0.20;99.90
20459;DHT22;10388;52.314;7.938;2024-01-07T01:24:43;-0.10;99.90
20459;DHT22;10388;52.314;7.938;2024-01-07T01:27:16;-0.10;99.90
20459;DHT22;10388;52.314;7.938;2024-01-07T01:29:46;-0.20;99.90
20459;DHT22;10388;52.314;7.938;2024-01-07T01:32:17;-0.10;99.90
20459;DHT22;10388;52.314;7.938;2024-01-07T01:34:52;-0.10;99.90
20459;DHT22;10388;52.314;7.938;2024-01-07T01:37:27;-0.10;99.90
20459;DHT22;10388;52.314;7.938;2024-01-07T01:40:04;-0.10;99.90
20459;DHT22;10388;52.314;7.938;2024-01-07T01:42:38;-0.20;99.90
20459;DHT22;10388;52.314;7.938;2024-01-07T01:45:08;-0.20;99.90
20459;DHT22;10388;52.314;7.938;2024-01-07T01:47:39;-0.10;99.90
20459;DHT22;10388;52.314;7.938;2024-01-07T01:50:11;-0.10;99.90
20459;DHT22;10388;52.314;7.938;2024-01-07T01:52:48;-0.20;99.90
20459;DHT22;10388;52.314;7.938;2024-01-07T01:55:19;-0.20;99.90
20459;DHT22;10388;52.314;7.938;2024-01-07T01:57:54;-0.20;99.90
20459;DHT22;10388;52.314;7.938;2024-01-07T02:00:26;-0.20;99.90
20459;DHT22;10388;52.314;7.938;2024-01-07T02:02:57;-0.20;99.90
20459;DHT22;10388;52.314;7.938;2024-01-07T02:05:37;-0.20;99.90
20459;DHT22;10388;52.314;7.938;2024-01-07T02:08:17;-0.20;99.90
20459;DHT22;10388;52.314;7.938;2024-01-07T02:10:49;-0.30;99.90
20459;DHT22;10388;52.314;7.938;2024-01-07T02:13:22;-0.20;99.90
20459;DHT22;10388;52.314;7.938;2024-01-07T02:15:53;-0.30;99.90
20459;DHT22;10388;52.314;7.938;2024-01-07T02:18:23;-0.30;99.90
20459;DHT22;10388;52.314;7.938;2024-01-07T02:21:03;-0.20;99.90
20459;DHT22;10388;52.314;7.938;2024-01-07T02:23:33;-0.20;99.90
20459;DHT22;10388;52.314;7.938;2024-01-07T02:26:07;-0.30;99.90
20459;DHT22;10388;52.314;7.938;2024-01-07T02:28:38;-0.30;99.90
20459;DHT22;10388;52.314;7.938;2024-01-07T02:31:08;-0.30;99.90
20459;DHT22;10388;52.314;7.938;2024-01-07T02:33:39;-0.20;99.90
20459;DHT22;10388;52.314;7.938;2024-01-07T02:36:15;-0.30;99.90
20459;DHT22;10388;52.314;7.938;2024-01-07T02:38:46;-0.30;99.90
20459;DHT22;10388;52.314;7.938;2024-01-07T02:41:22;-0.30;99.90
20459;DHT22;10388;52.314;7.938;2024-01-07T02:43:55;-0.30;99.90
20459;DHT22;10388;52.314;7.938;2024-01-07T02:46:34;-0.30;99.90
20459;DHT22;10388;52.314;7.938;2024-01-07T02:49:04;-0.30;99.90
20459;DHT22;10388;52.314;7.938;2024-01-07T02:55:36;-0.30;99.90
20459;DHT22;10388;52.314;7.938;2024-01-07T02:58:07;-0.30;99.90
20459;DHT22;10388;52.314;7.938;2024-01-07T03:00:40;-0.30;99.90
20459;DHT22;10388;52.314;7.938;2024-01-07T03:03:12;-0.30;99.90
20459;DHT22;10388;52.314;7.938;2024-01-07T03:05:42;-0.30;99.90
20459;DHT22;10388;52.314;7.938;2024-01-07T03:08:13;-0.30;99.90
20459;DHT22;10388;52.314;7.938;2024-01-07T03:10:49;-0.40;99.90
20459;DHT22;10388;52.314;7.938;2024-01-07T03:13:20;-0.40;99.90
20459;DHT22;10388;52.314;7.938;2024-01-07T03:16:18;-0.30;99.90
20459;DHT22;10388;52.314;7.938;2024-01-07T03:18:44;-0.30;99.90
20459;DHT22;10388;52.314;7.938;2024-01-07T03:21:22;-0.40;99.90
20459;DHT22;10388;52.314;7.938;2024-01-07T03:24:01;-0.40;99.90
20459;DHT22;10388;52.314;7.938;2024-01-07T03:26:38;-0.40;99.90
20459;DHT22;10388;52.314;7.938;2024-01-07T03:29:12;-0.40;99.90
20459;DHT22;10388;52.314;7.938;2024-01-07T03:31:49;-0.40;99.90
20459;DHT22;10388;52.314;7.938;2024-01-07T03:34:21;-0.40;99.90
20459;DHT22;10388;52.314;7.938;2024-01-07T03:37:04;-0.40;99.90
20459;DHT22;10388;52.314;7.938;2024-01-07T03:39:35;-0.40;99.90
20459;DHT22;10388;52.314;7.938;2024-01-07T03:42:06;-0.50;99.90
20459;DHT22;10388;52.314;7.938;2024-01-07T03:44:41;-0.40;99.90
20459;DHT22;10388;52.314;7.938;2024-01-07T03:47:12;-0.40;99.90
20459;DHT22;10388;52.314;7.938;2024-01-07T03:49:43;-0.40;99.90
20459;DHT22;10388;52.314;7.938;2024-01-07T03:52:16;-0.40;99.90
20459;DHT22;10388;52.314;7.938;2024-01-07T03:54:59;-0.40;99.90
20459;DHT22;10388;52.314;7.938;2024-01-07T03:57:29;-0.40;99.90
20459;DHT22;10388;52.314;7.938;2024-01-07T04:00:18;-0.40;99.90
20459;DHT22;10388;52.314;7.938;2024-01-07T04:02:52;-0.50;99.90
20459;DHT22;10388;52.314;7.938;2024-01-07T04:05:23;-0.50;99.90
20459;DHT22;10388;52.314;7.938;2024-01-07T04:07:53;-0.40;99.90
20459;DHT22;10388;52.314;7.938;2024-01-07T04:10:24;-0.50;99.90
20459;DHT22;10388;52.314;7.938;2024-01-07T04:12:58;-0.50;99.90
20459;DHT22;10388;52.314;7.938;2024-01-07T04:15:29;-0.50;99.90
20459;DHT22;10388;52.314;7.938;2024-01-07T04:18:12;-0.60;99.90
20459;DHT22;10388;52.314;7.938;2024-01-07T04:20:43;-0.60;99.90
20459;DHT22;10388;52.314;7.938;2024-01-07T04:23:14;-0.60;99.90
20459;DHT22;10388;52.314;7.938;2024-01-07T04:25:47;-0.50;99.90
20459;DHT22;10388;52.314;7.938;2024-01-07T04:28:17;-0.60;99.90
20459;DHT22;10388;52.314;7.938;2024-01-07T04:30:56;-0.60;99.90
20459;DHT22;10388;52.314;7.938;2024-01-07T04:33:26;-0.60;99.90
20459;DHT22;10388;52.314;7.938;2024-01-07T04:35:57;-0.60;99.90
20459;DHT22;10388;52.314;7.938;2024-01-07T04:38:29;-0.70;99.90
20459;DHT22;10388;52.314;7.938;2024-01-07T04:41:00;-0.70;99.90
20459;DHT22;10388;52.314;7.938;2024-01-07T04:43:30;-0.70;99.90
20459;DHT22;10388;52.314;7.938;2024-01-07T04:46:01;-0.70;99.90
20459;DHT22;10388;52.314;7.938;2024-01-07T04:48:31;-0.60;99.90
20459;DHT22;10388;52.314;7.938;2024-01-07T04:51:02;-0.70;99.90
20459;DHT22;10388;52.314;7.938;2024-01-07T04:53:32;-0.70;99.90
20459;DHT22;10388;52.314;7.938;2024-01-07T04:56:03;-0.70;99.90
20459;DHT22;10388;52.314;7.938;2024-01-07T04:58:34;-0.70;99.90
20459;DHT22;10388;52.314;7.938;2024-01-07T05:01:04;-0.70;99.90
20459;DHT22;10388;52.314;7.938;2024-01-07T05:03:35;-0.80;99.90
20459;DHT22;10388;52.314;7.938;2024-01-07T05:06:08;-0.80;99.90
20459;DHT22;10388;52.314;7.938;2024-01-07T05:08:42;-0.80;99.90
20459;DHT22;10388;52.314;7.938;2024-01-07T05:11:13;-0.80;99.90
20459;DHT22;10388;52.314;7.938;2024-01-07T05:13:44;-0.90;99.90
20459;DHT22;10388;52.314;7.938;2024-01-07T05:16:19;-0.80;99.90
20459;DHT22;10388;52.314;7.938;2024-01-07T05:18:49;-0.80;99.90
20459;DHT22;10388;52.314;7.938;2024-01-07T05:21:20;-0.90;99.90
20459;DHT22;10388;52.314;7.938;2024-01-07T05:23:50;-0.90;99.90
20459;DHT22;10388;52.314;7.938;2024-01-07T05:26:21;-0.90;99.90
20459;DHT22;10388;52.314;7.938;2024-01-07T05:28:52;-0.90;99.90
20459;DHT22;10388;52.314;7.938;2024-01-07T05:31:22;-0.90;99.90
20459;DHT22;10388;52.314;7.938;2024-01-07T05:33:53;-0.90;99.90
20459;DHT22;10388;52.314;7.938;2024-01-07T05:36:23;-0.90;99.90
20459;DHT22;10388;52.314;7.938;2024-01-07T05:38:54;-0.90;99.90
20459;DHT22;10388;52.314;7.938;2024-01-07T05:41:25;-0.90;99.90
20459;DHT22;10388;52.314;7.938;2024-01-07T05:43:55;-0.90;99.90
20459;DHT22;10388;52.314;7.938;2024-01-07T05:46:26;-1.00;99.90
20459;DHT22;10388;52.314;7.938;2024-01-07T05:48:56;-1.00;99.90
20459;DHT22;10388;52.314;7.938;2024-01-07T05:51:27;-1.00;99.90
20459;DHT22;10388;52.314;7.938;2024-01-07T05:53:57;-1.10;99.90
20459;DHT22;10388;52.314;7.938;2024-01-07T05:56:28;-1.10;99.90
20459;DHT22;10388;52.314;7.938;2024-01-07T05:58:59;-1.10;99.90
20459;DHT22;10388;52.314;7.938;2024-01-07T06:01:29;-1.10;99.90
20459;DHT22;10388;52.314;7.938;2024-01-07T06:04:00;-1.10;99.90
20459;DHT22;10388;52.314;7.938;2024-01-07T06:06:30;-1.10;99.90
20459;DHT22;10388;52.314;7.938;2024-01-07T06:09:01;-1.10;99.90
20459;DHT22;10388;52.314;7.938;2024-01-07T06:11:32;-1.20;99.90
20459;DHT22;10388;52.314;7.938;2024-01-07T06:14:03;-1.20;99.90
20459;DHT22;10388;52.314;7.938;2024-01-07T06:16:33;-1.20;99.90
20459;DHT22;10388;52.314;7.938;2024-01-07T06:19:04;-1.20;99.90
20459;DHT22;10388;52.314;7.938;2024-01-07T06:21:34;-1.20;99.90
20459;DHT22;10388;52.314;7.938;2024-01-07T06:24:07;-1.30;99.90
20459;DHT22;10388;52.314;7.938;2024-01-07T06:26:37;-1.30;99.90
20459;DHT22;10388;52.314;7.938;2024-01-07T06:29:08;-1.20;99.90
20459;DHT22;10388;52.314;7.938;2024-01-07T06:31:43;-1.30;99.90
20459;DHT22;10388;52.314;7.938;2024-01-07T06:34:15;-1.40;99.90
20459;DHT22;10388;52.314;7.938;2024-01-07T06:36:46;-1.40;99.90
20459;DHT22;10388;52.314;7.938;2024-01-07T06:39:16;-1.40;99.90
20459;DHT22;10388;52.314;7.938;2024-01-07T06:41:47;-1.50;99.90
20459;DHT22;10388;52.314;7.938;2024-01-07T06:44:17;-1.40;99.90
20459;DHT22;10388;52.314;7.938;2024-01-07T06:46:48;-1.50;99.90
20459;DHT22;10388;52.314;7.938;2024-01-07T06:49:18;-1.50;99.90
20459;DHT22;10388;52.314;7.938;2024-01-07T06:51:49;-1.50;99.90
20459;DHT22;10388;52.314;7.938;2024-01-07T06:54:19;-1.40;99.90
20459;DHT22;10388;52.314;7.938;2024-01-07T06:56:50;-1.50;99.90
20459;DHT22;10388;52.314;7.938;2024-01-07T06:59:20;-1.40;99.90
20459;DHT22;10388;52.314;7.938;2024-01-07T07:01:51;-1.40;99.90
20459;DHT22;10388;52.314;7.938;2024-01-07T07:04:21;-1.40;99.90
20459;DHT22;10388;52.314;7.938;2024-01-07T07:06:52;-1.40;99.90
20459;DHT22;10388;52.314;7.938;2024-01-07T07:09:23;-1.40;99.90
20459;DHT22;10388;52.314;7.938;2024-01-07T07:11:53;-1.40;99.90
20459;DHT22;10388;52.314;7.938;2024-01-07T07:14:24;-1.40;99.90
20459;DHT22;10388;52.314;7.938;2024-01-07T07:16:54;-1.40;99.90
20459;DHT22;10388;52.314;7.938;2024-01-07T07:19:25;-1.30;99.90
20459;DHT22;10388;52.314;7.938;2024-01-07T07:21:56;-1.30;99.90
20459;DHT22;10388;52.314;7.938;2024-01-07T07:24:26;-1.30;99.90
20459;DHT22;10388;52.314;7.938;2024-01-07T07:26:57;-1.30;99.90
20459;DHT22;10388;52.314;7.938;2024-01-07T07:29:27;-1.30;99.90
20459;DHT22;10388;52.314;7.938;2024-01-07T07:31:58;-1.30;99.90
20459;DHT22;10388;52.314;7.938;2024-01-07T07:34:28;-1.30;99.90
20459;DHT22;10388;52.314;7.938;2024-01-07T07:36:59;-1.30;99.90
20459;DHT22;10388;52.314;7.938;2024-01-07T07:39:29;-1.30;99.90
20459;DHT22;10388;52.314;7.938;2024-01-07T07:42:00;-1.30;99.90
20459;DHT22;10388;52.314;7.938;2024-01-07T07:44:30;-1.30;99.90
20459;DHT22;10388;52.314;7.938;2024-01-07T07:47:01;-1.30;99.90
20459;DHT22;10388;52.314;7.938;2024-01-07T07:49:31;-1.30;99.90
20459;DHT22;10388;52.314;7.938;2024-01-07T07:52:02;-1.30;99.90
20459;DHT22;10388;52.314;7.938;2024-01-07T07:54:33;-1.30;99.90
20459;DHT22;10388;52.314;7.938;2024-01-07T07:57:03;-1.30;99.90
20459;DHT22;10388;52.314;7.938;2024-01-07T07:59:34;-1.30;99.90
20459;DHT22;10388;52.314;7.938;2024-01-07T08:02:04;-1.30;99.90
20459;DHT22;10388;52.314;7.938;2024-01-07T08:04:35;-1.30;99.90
20459;DHT22;10388;52.314;7.938;2024-01-07T08:07:06;-1.30;99.90
20459;DHT22;10388;52.314;7.938;2024-01-07T08:09:36;-1.30;99.90
20459;DHT22;10388;52.314;7.938;2024-01-07T08:12:10;-1.30;99.90
20459;DHT22;10388;52.314;7.938;2024-01-07T08:14:42;-1.30;99.90
20459;DHT22;10388;52.314;7.938;2024-01-07T08:17:12;-1.30;99.90
20459;DHT22;10388;52.314;7.938;2024-01-07T08:19:43;-1.30;99.90
20459;DHT22;10388;52.314;7.938;2024-01-07T08:22:13;-1.30;99.90
20459;DHT22;10388;52.314;7.938;2024-01-07T08:24:44;-1.30;99.90
20459;DHT22;10388;52.314;7.938;2024-01-07T08:27:15;-1.30;99.90
20459;DHT22;10388;52.314;7.938;2024-01-07T08:29:45;-1.30;99.90
20459;DHT22;10388;52.314;7.938;2024-01-07T08:32:16;-1.30;99.90
20459;DHT22;10388;52.314;7.938;2024-01-07T08:34:47;-1.40;99.90
20459;DHT22;10388;52.314;7.938;2024-01-07T08:37:18;-1.40;99.90
20459;DHT22;10388;52.314;7.938;2024-01-07T08:39:48;-1.40;99.90
20459;DHT22;10388;52.314;7.938;2024-01-07T08:42:19;-1.40;99.90
20459;DHT22;10388;52.314;7.938;2024-01-07T08:44:49;-1.50;99.90
20459;DHT22;10388;52.314;7.938;2024-01-07T08:47:20;-1.50;99.90
20459;DHT22;10388;52.314;7.938;2024-01-07T08:49:50;-1.50;99.90
20459;DHT22;10388;52.314;7.938;2024-01-07T08:52:24;-1.60;99.90
20459;DHT22;10388;52.314;7.938;2024-01-07T08:55:01;-1.60;99.90
20459;DHT22;10388;52.314;7.938;2024-01-07T08:57:32;-1.60;99.90
20459;DHT22;10388;52.314;7.938;2024-01-07T09:00:03;-1.60;99.90
20459;DHT22;10388;52.314;7.938;2024-01-07T09:02:35;-1.60;99.90
20459;DHT22;10388;52.314;7.938;2024-01-07T09:05:06;-1.60;99.90
20459;DHT22;10388;52.314;7.938;2024-01-07T09:07:37;-1.60;99.90
20459;DHT22;10388;52.314;7.938;2024-01-07T09:10:07;-1.60;99.90
20459;DHT22;10388;52.314;7.938;2024-01-07T09:12:40;-1.70;99.90
20459;DHT22;10388;52.314;7.938;2024-01-07T09:15:11;-1.70;99.90
20459;DHT22;10388;52.314;7.938;2024-01-07T09:17:41;-1.70;99.90
20459;DHT22;10388;52.314;7.938;2024-01-07T09:20:12;-1.70;99.90
20459;DHT22;10388;52.314;7.938;2024-01-07T09:22:43;-1.70;99.90
20459;DHT22;10388;52.314;7.938;2024-01-07T09:25:14;-1.70;99.90
20459;DHT22;10388;52.314;7.938;2024-01-07T09:27:44;-1.70;99.90
20459;DHT22;10388;52.314;7.938;2024-01-07T09:30:15;-1.70;99.90
20459;DHT22;10388;52.314;7.938;2024-01-07T09:32:47;-1.70;99.90
20459;DHT22;10388;52.314;7.938;2024-01-07T09:35:18;-1.60;99.90
20459;DHT22;10388;52.314;7.938;2024-01-07T09:37:48;-1.60;99.90
20459;DHT22;10388;52.314;7.938;2024-01-07T09:40:19;-1.60;99.90
20459;DHT22;10388;52.314;7.938;2024-01-07T09:42:50;-1.60;99.90
20459;DHT22;10388;52.314;7.938;2024-01-07T09:45:21;-1.60;99.90
20459;DHT22;10388;52.314;7.938;2024-01-07T09:47:53;-1.60;99.90
20459;DHT22;10388;52.314;7.938;2024-01-07T09:50:24;-1.50;99.90
20459;DHT22;10388;52.314;7.938;2024-01-07T09:52:56;-1.50;99.90
20459;DHT22;10388;52.314;7.938;2024-01-07T09:55:33;-1.60;99.90
20459;DHT22;10388;52.314;7.938;2024-01-07T09:58:06;-1.60;99.90
20459;DHT22;10388;52.314;7.938;2024-01-07T10:00:37;-1.60;99.90
20459;DHT22;10388;52.314;7.938;2024-01-07T10:03:08;-1.70;99.90
20459;DHT22;10388;52.314;7.938;2024-01-07T10:05:39;-1.70;99.90
20459;DHT22;10388;52.314;7.938;2024-01-07T10:08:09;-1.70;99.90
20459;DHT22;10388;52.314;7.938;2024-01-07T10:10:40;-1.60;99.90
20459;DHT22;10388;52.314;7.938;2024-01-07T10:13:11;-1.60;99.90
20459;DHT22;10388;52.314;7.938;2024-01-07T10:15:41;-1.60;99.90
20459;DHT22;10388;52.314;7.938;2024-01-07T10:18:13;-1.50;99.90
20459;DHT22;10388;52.314;7.938;2024-01-07T10:20:44;-1.50;99.90
20459;DHT22;10388;52.314;7.938;2024-01-07T10:23:20;-1.50;99.90
20459;DHT22;10388;52.314;7.938;2024-01-07T10:25:51;-1.40;99.90
20459;DHT22;10388;52.314;7.938;2024-01-07T10:28:23;-1.40;99.90
20459;DHT22;10388;52.314;7.938;2024-01-07T10:30:53;-1.40;99.90
20459;DHT22;10388;52.314;7.938;2024-01-07T10:33:24;-1.30;99.90
20459;DHT22;10388;52.314;7.938;2024-01-07T10:35:59;-1.30;99.90
20459;DHT22;10388;52.314;7.938;2024-01-07T10:38:32;-1.30;99.90
20459;DHT22;10388;52.314;7.938;2024-01-07T10:41:07;-1.30;99.90
20459;DHT22;10388;52.314;7.938;2024-01-07T10:43:39;-1.20;99.90
20459;DHT22;10388;52.314;7.938;2024-01-07T10:46:14;-1.10;99.90
20459;DHT22;10388;52.314;7.938;2024-01-07T10:48:55;-1.20;99.90
20459;DHT22;10388;52.314;7.938;2024-01-07T10:51:28;-1.10;99.90
20459;DHT22;10388;52.314;7.938;2024-01-07T10:53:58;-1.10;99.90
20459;DHT22;10388;52.314;7.938;2024-01-07T10:56:37;-1.10;99.90
20459;DHT22;10388;52.314;7.938;2024-01-07T10:59:09;-1.00;99.90
20459;DHT22;10388;52.314;7.938;2024-01-07T11:01:40;-1.10;99.90
20459;DHT22;10388;52.314;7.938;2024-01-07T11:06:59;-1.00;99.90
20459;DHT22;10388;52.314;7.938;2024-01-07T11:09:37;-1.00;99.90
20459;DHT22;10388;52.314;7.938;2024-01-07T11:12:10;-1.00;99.90
20459;DHT22;10388;52.314;7.938;2024-01-07T11:14:43;-1.00;99.90
20459;DHT22;10388;52.314;7.938;2024-01-07T11:20:13;-0.90;99.90
20459;DHT22;10388;52.314;7.938;2024-01-07T11:22:44;-0.90;99.90
20459;DHT22;10388;52.314;7.938;2024-01-07T11:25:32;-0.90;99.90
20459;DHT22;10388;52.314;7.938;2024-01-07T11:28:04;-0.80;99.90
20459;DHT22;10388;52.314;7.938;2024-01-07T11:30:38;-0.70;99.90
20459;DHT22;10388;52.314;7.938;2024-01-07T11:33:12;-0.70;99.90
20459;DHT22;10388;52.314;7.938;2024-01-07T11:35:57;-0.80;99.90
20459;DHT22;10388;52.314;7.938;2024-01-07T11:38:28;-0.80;99.90
20459;DHT22;10388;52.314;7.938;2024-01-07T11:40:59;-0.70;99.90
20459;DHT22;10388;52.314;7.938;2024-01-07T11:43:30;-0.80;99.90
20459;DHT22;10388;52.314;7.938;2024-01-07T11:46:01;-0.70;99.90
20459;DHT22;10388;52.314;7.938;2024-01-07T11:48:31;-0.80;99.90
20459;DHT22;10388;52.314;7.938;2024-01-07T11:51:02;-0.70;99.90
20459;DHT22;10388;52.314;7.938;2024-01-07T11:53:33;-0.70;99.90
20459;DHT22;10388;52.314;7.938;2024-01-07T11:56:04;-0.70;99.90
20459;DHT22;10388;52.314;7.938;2024-01-07T11:58:35;-0.70;99.90
20459;DHT22;10388;52.314;7.938;2024-01-07T12:01:05;-0.60;99.90
20459;DHT22;10388;52.314;7.938;2024-01-07T12:03:36;-0.60;99.90
20459;DHT22;10388;52.314;7.938;2024-01-07T12:06:07;-0.60;99.90
20459;DHT22;10388;52.314;7.938;2024-01-07T12:08:37;-0.60;99.90
20459;DHT22;10388;52.314;7.938;2024-01-07T12:11:09;-0.60;99.90
20459;DHT22;10388;52.314;7.938;2024-01-07T12:13:42;-0.60;99.90
20459;DHT22;10388;52.314;7.938;2024-01-07T12:16:13;-0.60;99.90
20459;DHT22;10388;52.314;7.938;2024-01-07T12:18:44;-0.60;99.90
20459;DHT22;10388;52.314;7.938;2024-01-07T12:21:21;-0.50;99.90
20459;DHT22;10388;52.314;7.938;2024-01-07T12:23:52;-0.50;99.90
20459;DHT22;10388;52.314;7.938;2024-01-07T12:26:29;-0.40;99.90
20459;DHT22;10388;52.314;7.938;2024-01-07T12:29:00;-0.50;99.90
20459;DHT22;10388;52.314;7.938;2024-01-07T12:31:34;-0.50;99.90
20459;DHT22;10388;52.314;7.938;2024-01-07T12:34:04;-0.50;99.90
20459;DHT22;10388;52.314;7.938;2024-01-07T12:36:35;-0.50;99.90
20459;DHT22;10388;52.314;7.938;2024-01-07T12:39:06;-0.50;99.90
20459;DHT22;10388;52.314;7.938;2024-01-07T12:41:37;-0.40;99.90
20459;DHT22;10388;52.314;7.938;2024-01-07T12:44:07;-0.50;99.90
20459;DHT22;10388;52.314;7.938;2024-01-07T12:46:39;-0.40;99.90
20459;DHT22;10388;52.314;7.938;2024-01-07T12:49:09;-0.40;99.90
20459;DHT22;10388;52.314;7.938;2024-01-07T12:51:40;-0.40;99.90
20459;DHT22;10388;52.314;7.938;2024-01-07T12:54:10;-0.40;99.90
20459;DHT22;10388;52.314;7.938;2024-01-07T12:56:41;-0.40;99.90
20459;DHT22;10388;52.314;7.938;2024-01-07T12:59:12;-0.30;99.90
20459;DHT22;10388;52.314;7.938;2024-01-07T13:01:42;-0.30;99.90
20459;DHT22;10388;52.314;7.938;2024-01-07T13:04:13;-0.30;99.90
20459;DHT22;10388;52.314;7.938;2024-01-07T13:06:44;-0.40;99.90
20459;DHT22;10388;52.314;7.938;2024-01-07T13:09:15;-0.30;99.90
20459;DHT22;10388;52.314;7.938;2024-01-07T13:11:46;-0.30;99.90
20459;DHT22;10388;52.314;7.938;2024-01-07T13:14:16;-0.30;99.90
20459;DHT22;10388;52.314;7.938;2024-01-07T13:16:47;-0.20;99.90
20459;DHT22;10388;52.314;7.938;2024-01-07T13:19:18;-0.20;99.90
20459;DHT22;10388;52.314;7.938;2024-01-07T13:21:49;-0.20;99.90
20459;DHT22;10388;52.314;7.938;2024-01-07T13:24:19;-0.20;99.90
20459;DHT22;10388;52.314;7.938;2024-01-07T13:26:50;-0.10;99.90
20459;DHT22;10388;52.314;7.938;2024-01-07T13:29:20;-0.10;99.90
20459;DHT22;10388;52.314;7.938;2024-01-07T13:31:51;-0.20;99.90
20459;DHT22;10388;52.314;7.938;2024-01-07T13:34:21;-0.20;99.90
20459;DHT22;10388;52.314;7.938;2024-01-07T13:36:52;-0.20;99.90
20459;DHT22;10388;52.314;7.938;2024-01-07T13:39:22;-0.20;99.90
20459;DHT22;10388;52.314;7.938;2024-01-07T13:41:53;-0.20;99.90
20459;DHT22;10388;52.314;7.938;2024-01-07T13:44:24;-0.20;99.90
20459;DHT22;10388;52.314;7.938;2024-01-07T13:46:55;-0.10;99.90
20459;DHT22;10388;52.314;7.938;2024-01-07T13:49:25;-0.10;99.90
20459;DHT22;10388;52.314;7.938;2024-01-07T13:51:56;-0.20;99.90
20459;DHT22;10388;52.314;7.938;2024-01-07T13:54:26;-0.10;99.90
20459;DHT22;10388;52.314;7.938;2024-01-07T13:56:57;-0.10;99.90
20459;DHT22;10388;52.314;7.938;2024-01-07T13:59:27;-0.20;99.90
20459;DHT22;10388;52.314;7.938;2024-01-07T14:01:58;-0.10;99.90
20459;DHT22;10388;52.314;7.938;2024-01-07T14:04:29;-0.10;99.90
20459;DHT22;10388;52.314;7.938;2024-01-07T14:07:00;-0.10;99.90
20459;DHT22;10388;52.314;7.938;2024-01-07T14:09:30;-0.10;99.90
20459;DHT22;10388;52.314;7.938;2024-01-07T14:12:01;-0.10;99.90
20459;DHT22;10388;52.314;7.938;2024-01-07T14:14:33;-0.10;99.90
20459;DHT22;10388;52.314;7.938;2024-01-07T14:17:04;-0.10;99.90
20459;DHT22;10388;52.314;7.938;2024-01-07T14:19:34;-0.10;99.90
20459;DHT22;10388;52.314;7.938;2024-01-07T14:22:05;-0.10;99.90
20459;DHT22;10388;52.314;7.938;2024-01-07T14:24:35;-0.10;99.90
20459;DHT22;10388;52.314;7.938;2024-01-07T14:27:06;-0.20;99.90
20459;DHT22;10388;52.314;7.938;2024-01-07T14:29:37;-0.10;99.90
20459;DHT22;10388;52.314;7.938;2024-01-07T14:32:08;-0.20;99.90
20459;DHT22;10388;52.314;7.938;2024-01-07T14:34:39;-0.20;99.90
20459;DHT22;10388;52.314;7.938;2024-01-07T14:37:14;-0.20;99.90
20459;DHT22;10388;52.314;7.938;2024-01-07T14:39:44;-0.20;99.90
20459;DHT22;10388;52.314;7.938;2024-01-07T14:42:15;-0.20;99.90
20459;DHT22;10388;52.314;7.938;2024-01-07T14:44:46;-0.30;99.90
20459;DHT22;10388;52.314;7.938;2024-01-07T14:47:16;-0.20;99.90
20459;DHT22;10388;52.314;7.938;2024-01-07T14:49:48;-0.30;99.90
20459;DHT22;10388;52.314;7.938;2024-01-07T14:52:19;-0.20;99.90
20459;DHT22;10388;52.314;7.938;2024-01-07T14:54:52;-0.30;99.90
20459;DHT22;10388;52.314;7.938;2024-01-07T14:57:30;-0.30;99.90
20459;DHT22;10388;52.314;7.938;2024-01-07T15:00:03;-0.30;99.90
20459;DHT22;10388;52.314;7.938;2024-01-07T15:02:35;-0.40;99.90
20459;DHT22;10388;52.314;7.938;2024-01-07T15:05:08;-0.40;99.90
20459;DHT22;10388;52.314;7.938;2024-01-07T15:07:39;-0.40;99.90
20459;DHT22;10388;52.314;7.938;2024-01-07T15:10:09;-0.40;99.90
20459;DHT22;10388;52.314;7.938;2024-01-07T15:12:40;-0.40;99.90
20459;DHT22;10388;52.314;7.938;2024-01-07T15:15:11;-0.50;99.90
20459;DHT22;10388;52.314;7.938;2024-01-07T15:17:42;-0.50;99.90
20459;DHT22;10388;52.314;7.938;2024-01-07T15:20:13;-0.60;99.90
20459;DHT22;10388;52.314;7.938;2024-01-07T15:22:43;-0.60;99.90
20459;DHT22;10388;52.314;7.938;2024-01-07T15:25:14;-0.50;99.90
20459;DHT22;10388;52.314;7.938;2024-01-07T15:27:45;-0.60;99.90
20459;DHT22;10388;52.314;7.938;2024-01-07T15:30:15;-0.60;99.90
20459;DHT22;10388;52.314;7.938;2024-01-07T15:32:46;-0.70;99.90
20459;DHT22;10388;52.314;7.938;2024-01-07T15:35:19;-0.70;99.90
20459;DHT22;10388;52.314;7.938;2024-01-07T15:37:49;-0.70;99.90
20459;DHT22;10388;52.314;7.938;2024-01-07T15:40:20;-0.70;99.90
20459;DHT22;10388;52.314;7.938;2024-01-07T15:42:50;-0.70;99.90
20459;DHT22;10388;52.314;7.938;2024-01-07T15:45:21;-0.80;99.90
20459;DHT22;10388;52.314;7.938;2024-01-07T15:47:51;-0.80;99.90
20459;DHT22;10388;52.314;7.938;2024-01-07T15:50:22;-0.80;99.90
20459;DHT22;10388;52.314;7.938;2024-01-07T15:52:52;-0.80;99.90
20459;DHT22;10388;52.314;7.938;2024-01-07T15:55:26;-0.90;99.90
20459;DHT22;10388;52.314;7.938;2024-01-07T15:57:56;-0.90;99.90
20459;DHT22;10388;52.314;7.938;2024-01-07T16:00:27;-0.90;99.90
20459;DHT22;10388;52.314;7.938;2024-01-07T16:02:58;-0.90;99.90
20459;DHT22;10388;52.314;7.938;2024-01-07T16:05:29;-1.00;99.90
20459;DHT22;10388;52.314;7.938;2024-01-07T16:08:00;-0.90;99.90
20459;DHT22;10388;52.314;7.938;2024-01-07T16:10:30;-0.90;99.90